createdAt,value
2022-08-11T00:00:07.288Z,0
2022-08-11T00:03:07.340Z,0
2022-08-11T00:06:09.028Z,0
2022-08-11T00:09:07.099Z,0
2022-08-11T00:12:07.335Z,0
2022-08-11T00:15:07.109Z,0
2022-08-11T00:18:07.191Z,0
2022-08-11T00:21:07.048Z,0
2022-08-11T00:24:07.045Z,0
2022-08-11T00:27:07.046Z,0
2022-08-11T00:30:07.048Z,0
2022-08-11T00:33:07.081Z,0
2022-08-11T00:36:07.065Z,0
2022-08-11T00:39:07.128Z,0
2022-08-11T00:42:07.093Z,0
2022-08-11T00:45:07.027Z,0
2022-08-11T00:48:07.176Z,0
2022-08-11T00:51:07.068Z,0
2022-08-11T00:54:07.113Z,0
2022-08-11T00:57:40.183Z,0
2022-08-11T01:00:10.519Z,0
2022-08-11T01:03:07.034Z,0
2022-08-11T01:06:24.580Z,0
2022-08-11T01:09:07.127Z,0
2022-08-11T01:12:07.168Z,0
2022-08-11T01:15:07.117Z,0
2022-08-11T01:18:07.059Z,0
2022-08-11T01:21:07.058Z,0
2022-08-11T01:24:07.180Z,0
2022-08-11T01:27:21.298Z,0
2022-08-11T01:30:07.131Z,0
2022-08-11T01:33:07.032Z,0
2022-08-11T01:36:07.070Z,0
2022-08-11T01:39:07.068Z,0
2022-08-11T01:42:07.071Z,0
2022-08-11T01:45:07.085Z,0
2022-08-11T01:48:07.048Z,0
2022-08-11T01:51:07.095Z,0
2022-08-11T01:54:07.161Z,0
2022-08-11T01:57:07.137Z,0
2022-08-11T02:00:07.097Z,0
2022-08-11T02:03:07.048Z,0
2022-08-11T02:06:07.065Z,0
2022-08-11T02:09:10.955Z,0
2022-08-11T02:12:10.790Z,0
2022-08-11T02:15:12.221Z,0
2022-08-11T02:18:07.917Z,0
2022-08-11T02:21:07.151Z,0
2022-08-11T02:24:14.579Z,0
2022-08-11T02:27:07.055Z,0
2022-08-11T02:30:07.513Z,0
2022-08-11T02:33:07.069Z,0
2022-08-11T02:36:07.090Z,0
2022-08-11T02:39:07.083Z,0
2022-08-11T02:42:07.052Z,0
2022-08-11T02:45:07.116Z,0
2022-08-11T02:48:07.011Z,0
2022-08-11T02:51:07.082Z,0
2022-08-11T02:54:07.040Z,0
2022-08-11T02:57:13.566Z,0
2022-08-11T03:00:07.098Z,0
2022-08-11T03:03:07.060Z,0
2022-08-11T03:06:07.095Z,0
2022-08-11T03:09:07.060Z,0
2022-08-11T03:12:07.425Z,0
2022-08-11T03:15:07.027Z,3
2022-08-11T03:18:07.093Z,3
2022-08-11T03:21:07.000Z,3
2022-08-11T03:24:07.019Z,7
2022-08-11T03:27:07.067Z,10
2022-08-11T03:30:07.201Z,17
2022-08-11T03:33:07.062Z,27
2022-08-11T03:36:07.055Z,43
2022-08-11T03:39:07.161Z,63
2022-08-11T03:42:14.862Z,93
2022-08-11T03:45:07.052Z,133
2022-08-11T03:48:07.067Z,183
2022-08-11T03:51:07.017Z,237
2022-08-11T03:54:07.079Z,310
2022-08-11T03:57:07.052Z,390
2022-08-11T04:00:07.175Z,483
2022-08-11T04:03:07.132Z,590
2022-08-11T04:06:08.410Z,700
2022-08-11T04:09:07.143Z,827
2022-08-11T04:12:07.008Z,947
2022-08-11T04:15:07.095Z,1077
2022-08-11T04:18:07.117Z,1220
2022-08-11T04:21:07.100Z,1357
2022-08-11T04:24:51.885Z,1493
2022-08-11T04:27:16.596Z,1623
2022-08-11T04:30:16.863Z,1750
2022-08-11T04:33:09.746Z,1873
2022-08-11T04:36:07.119Z,1997
2022-08-11T04:39:07.133Z,2120
2022-08-11T04:42:07.068Z,2237
2022-08-11T04:45:07.471Z,2347
2022-08-11T04:48:11.378Z,2457
2022-08-11T04:51:24.211Z,2567
2022-08-11T04:54:07.094Z,2783
2022-08-11T04:57:07.056Z,2853
2022-08-11T05:00:07.237Z,2983
2022-08-11T05:03:07.100Z,3097
2022-08-11T05:06:07.079Z,3193
2022-08-11T05:09:07.106Z,3283
2022-08-11T05:12:08.653Z,3377
2022-08-11T05:15:07.047Z,3463
2022-08-11T05:18:08.536Z,3553
2022-08-11T05:21:11.689Z,3790
2022-08-11T05:24:07.344Z,5863
2022-08-11T05:27:13.730Z,5737
2022-08-11T05:30:07.325Z,6127
2022-08-11T05:33:09.083Z,6567
2022-08-11T05:36:09.916Z,6927
2022-08-11T05:39:07.109Z,7170
2022-08-11T05:42:07.049Z,7450
2022-08-11T05:45:17.553Z,7717
2022-08-11T05:48:07.083Z,8023
2022-08-11T05:51:32.098Z,8220
2022-08-11T05:54:32.206Z,8663
2022-08-11T05:57:07.113Z,8957
2022-08-11T06:00:08.622Z,9400
2022-08-11T06:03:07.110Z,9893
2022-08-11T06:06:07.134Z,10350
2022-08-11T06:09:07.069Z,10627
2022-08-11T06:12:07.119Z,11020
2022-08-11T06:15:07.087Z,11627
2022-08-11T06:18:07.118Z,11983
2022-08-11T06:21:07.069Z,12353
2022-08-11T06:24:07.082Z,12707
2022-08-11T06:27:20.126Z,13073
2022-08-11T06:30:07.206Z,13423
2022-08-11T06:33:08.036Z,13723
2022-08-11T06:36:07.053Z,14000
2022-08-11T06:39:07.078Z,14320
2022-08-11T06:42:07.140Z,14640
2022-08-11T06:45:07.343Z,14850
2022-08-11T06:48:07.077Z,15313
2022-08-11T06:51:07.093Z,15840
2022-08-11T06:54:12.152Z,16390
2022-08-11T06:57:37.322Z,16877
2022-08-11T07:00:07.284Z,17193
2022-08-11T07:03:07.076Z,17410
2022-08-11T07:06:07.097Z,17597
2022-08-11T07:09:07.089Z,17040
2022-08-11T07:12:07.185Z,16640
2022-08-11T07:15:07.832Z,17040
2022-08-11T07:18:07.100Z,17337
2022-08-11T07:24:07.126Z,16943
2022-08-11T07:27:07.207Z,16747
2022-08-11T07:30:07.157Z,15020
2022-08-11T07:33:07.062Z,16973
2022-08-11T07:36:07.235Z,17470
2022-08-11T07:39:07.131Z,18133
2022-08-11T07:42:07.103Z,18477
2022-08-11T07:45:07.081Z,18887
2022-08-11T07:48:07.107Z,19263
2022-08-11T07:51:07.101Z,19880
2022-08-11T07:54:23.519Z,20623
2022-08-11T08:00:14.638Z,22900
2022-08-11T08:03:07.052Z,24540
2022-08-11T08:06:35.552Z,26313
2022-08-11T08:09:07.429Z,28633
2022-08-11T08:12:07.119Z,31073
2022-08-11T08:15:07.999Z,33843
2022-08-11T08:18:33.903Z,36750
2022-08-11T08:21:10.095Z,39853
2022-08-11T08:24:07.072Z,42910
2022-08-11T08:27:07.103Z,45890
2022-08-11T08:30:07.186Z,48673
2022-08-11T08:33:07.067Z,51350
2022-08-11T08:36:07.159Z,53723
2022-08-11T08:39:07.085Z,55710
2022-08-11T08:42:07.171Z,57720
2022-08-11T08:45:07.210Z,59353
2022-08-11T08:48:07.242Z,60557
2022-08-11T08:51:07.148Z,61883
2022-08-11T08:54:07.121Z,63127
2022-08-11T08:57:07.094Z,64067
2022-08-11T09:00:12.679Z,64767
2022-08-11T09:06:07.098Z,66420
2022-08-11T09:09:07.128Z,67310
2022-08-11T09:12:07.096Z,67993
2022-08-11T09:15:07.228Z,68750
2022-08-11T09:18:07.130Z,69513
2022-08-11T09:21:07.098Z,69877
2022-08-11T09:24:32.031Z,70400
2022-08-11T09:27:07.163Z,71000
2022-08-11T09:30:07.152Z,71687
2022-08-11T09:33:07.117Z,72110
2022-08-11T09:36:09.393Z,72763
2022-08-11T09:39:07.225Z,73393
2022-08-11T09:42:30.201Z,73577
2022-08-11T09:45:08.623Z,74033
2022-08-11T09:48:07.108Z,74453
2022-08-11T09:51:07.111Z,73907
2022-08-11T09:54:10.702Z,74590
2022-08-11T09:57:12.037Z,74753
2022-08-11T10:00:20.609Z,75847
2022-08-11T10:03:07.120Z,75970
2022-08-11T10:06:15.411Z,75700
2022-08-11T10:09:07.169Z,75150
2022-08-11T10:12:07.129Z,75777
2022-08-11T10:15:07.547Z,76747
2022-08-11T10:18:07.318Z,76227
2022-08-11T10:21:07.146Z,76193
2022-08-11T10:24:12.662Z,76187
2022-08-11T10:27:07.374Z,75173
2022-08-11T10:30:09.431Z,76713
2022-08-11T10:33:19.057Z,77497
2022-08-11T10:36:18.551Z,77590
2022-08-11T10:39:07.130Z,76400
2022-08-11T10:42:58.155Z,75090
2022-08-11T10:45:07.213Z,75957
2022-08-11T10:48:07.083Z,76840
2022-08-11T10:51:07.107Z,76837
2022-08-11T10:54:07.235Z,77420
2022-08-11T10:57:07.125Z,74640
2022-08-11T11:00:07.224Z,76580
2022-08-11T11:03:30.387Z,77203
2022-08-11T11:06:36.291Z,74003
2022-08-11T11:09:11.551Z,75477
2022-08-11T11:12:07.191Z,77103
2022-08-11T11:15:19.600Z,76963
2022-08-11T11:18:07.195Z,78367
2022-08-11T11:21:07.098Z,73363
2022-08-11T11:24:07.694Z,76997
2022-08-11T11:27:07.084Z,77587
2022-08-11T11:30:07.174Z,77470
2022-08-11T11:33:07.156Z,78143
2022-08-11T11:36:07.141Z,77807
2022-08-11T11:39:07.333Z,77633
2022-08-11T11:42:07.159Z,77397
2022-08-11T11:45:08.187Z,77387
2022-08-11T11:48:07.089Z,77610
2022-08-11T11:51:07.173Z,77583
2022-08-11T11:54:07.195Z,77130
2022-08-11T11:57:07.119Z,77337
2022-08-11T12:00:07.253Z,76840
2022-08-11T12:03:07.639Z,72610
2022-08-11T12:06:07.089Z,76610
2022-08-11T12:09:07.206Z,74350
2022-08-11T12:12:07.124Z,74160
2022-08-11T12:15:07.275Z,74893
2022-08-11T12:18:07.142Z,75170
2022-08-11T12:21:07.130Z,74703
2022-08-11T12:24:11.153Z,74147
2022-08-11T12:27:28.492Z,74057
2022-08-11T12:30:07.143Z,73013
2022-08-11T12:33:07.117Z,72023
2022-08-11T12:36:08.050Z,71893
2022-08-11T12:42:08.394Z,70493
2022-08-11T12:45:24.226Z,70553
2022-08-11T12:51:07.092Z,69943
2022-08-11T12:54:07.147Z,69683
2022-08-11T12:57:07.157Z,68297
2022-08-11T13:00:07.654Z,67013
2022-08-11T13:03:07.074Z,67653
2022-08-11T13:06:07.280Z,66950
2022-08-11T13:09:08.190Z,66327
2022-08-11T13:12:07.103Z,65843
2022-08-11T13:15:08.039Z,65950
2022-08-11T13:18:07.129Z,65503
2022-08-11T13:21:07.111Z,64713
2022-08-11T13:24:10.143Z,64083
2022-08-11T13:27:07.339Z,63257
2022-08-11T13:30:07.118Z,62857
2022-08-11T13:33:07.150Z,62610
2022-08-11T13:36:07.148Z,62540
2022-08-11T13:39:07.299Z,62290
2022-08-11T13:42:07.066Z,57323
2022-08-11T13:45:07.153Z,60760
2022-08-11T13:48:07.090Z,58833
2022-08-11T13:51:07.128Z,54990
2022-08-11T13:54:08.806Z,58227
2022-08-11T13:58:07.037Z,55817
2022-08-11T14:00:13.101Z,55093
2022-08-11T14:03:07.679Z,56767
2022-08-11T14:06:07.165Z,55977
2022-08-11T14:09:07.125Z,55623
2022-08-11T14:12:30.979Z,55800
2022-08-11T14:15:15.031Z,55233
2022-08-11T14:18:07.239Z,54820
2022-08-11T14:21:07.081Z,52977
2022-08-11T14:24:07.995Z,51990
2022-08-11T14:27:07.136Z,48097
2022-08-11T14:30:07.270Z,49783
2022-08-11T14:33:25.524Z,51140
2022-08-11T14:36:07.105Z,50143
2022-08-11T14:39:07.152Z,44603
2022-08-11T14:42:19.838Z,48283
2022-08-11T14:45:07.177Z,46463
2022-08-11T14:48:07.138Z,46867
2022-08-11T14:51:07.129Z,45530
2022-08-11T14:54:07.163Z,45290
2022-08-11T14:57:07.148Z,44597
2022-08-11T15:00:07.405Z,43127
2022-08-11T15:03:07.086Z,42453
2022-08-11T15:06:07.104Z,42043
2022-08-11T15:09:11.666Z,41727
2022-08-11T15:12:07.118Z,41607
2022-08-11T15:15:07.111Z,37437
2022-08-11T15:18:07.843Z,38837
2022-08-11T15:21:07.151Z,38210
2022-08-11T15:24:07.103Z,38730
2022-08-11T15:27:07.122Z,37720
2022-08-11T15:30:07.114Z,35487
2022-08-11T15:33:08.618Z,36710
2022-08-11T15:36:07.084Z,35767
2022-08-11T15:39:07.092Z,35060
2022-08-11T15:42:07.159Z,35653
2022-08-11T15:45:11.058Z,35280
2022-08-11T15:48:14.884Z,34667
2022-08-11T15:51:07.123Z,33737
2022-08-11T15:54:11.767Z,33663
2022-08-11T15:57:07.188Z,32960
2022-08-11T16:00:07.161Z,31977
2022-08-11T16:03:07.144Z,28717
2022-08-11T16:06:11.427Z,30277
2022-08-11T16:09:17.903Z,27577
2022-08-11T16:12:07.146Z,27737
2022-08-11T16:15:07.089Z,24320
2022-08-11T16:18:07.032Z,25537
2022-08-11T16:21:07.119Z,23113
2022-08-11T16:24:07.122Z,26437
2022-08-11T16:27:24.632Z,23697
2022-08-11T16:30:07.129Z,24023
2022-08-11T16:33:55.987Z,21623
2022-08-11T16:36:09.906Z,21037
2022-08-11T16:39:07.133Z,23903
2022-08-11T16:42:07.103Z,18113
2022-08-11T16:45:07.157Z,20220
2022-08-11T16:48:44.878Z,18093
2022-08-11T16:51:07.940Z,16803
2022-08-11T16:54:12.792Z,16837
2022-08-11T16:57:24.392Z,18083
2022-08-11T17:00:07.099Z,15063
2022-08-11T17:03:07.105Z,16260
2022-08-11T17:06:07.084Z,17837
2022-08-11T17:09:07.173Z,15713
2022-08-11T17:12:07.133Z,16577
2022-08-11T17:15:07.076Z,15947
2022-08-11T17:18:07.088Z,8167
2022-08-11T17:21:07.154Z,5980
2022-08-11T17:24:15.468Z,5277
2022-08-11T17:27:07.086Z,4797
2022-08-11T17:30:07.274Z,4430
2022-08-11T17:33:08.043Z,4380
2022-08-11T17:36:07.119Z,4287
2022-08-11T17:39:07.146Z,4127
2022-08-11T17:42:07.104Z,4043
2022-08-11T17:45:07.126Z,3877
2022-08-11T17:48:07.218Z,3830
2022-08-11T17:51:07.105Z,3777
2022-08-11T17:54:30.963Z,3650
2022-08-11T17:57:07.126Z,3487
2022-08-11T18:00:07.203Z,3343
2022-08-11T18:03:07.080Z,3153
2022-08-11T18:06:07.186Z,2900
2022-08-11T18:09:07.142Z,2687
2022-08-11T18:12:19.180Z,2483
2022-08-11T18:15:07.155Z,2287
2022-08-11T18:18:07.164Z,2097
2022-08-11T18:21:07.085Z,1917
2022-08-11T18:24:07.084Z,1727
2022-08-11T18:27:07.109Z,1530
2022-08-11T18:30:07.141Z,1337
2022-08-11T18:36:07.640Z,1000
2022-08-11T18:39:07.130Z,850
2022-08-11T18:42:07.107Z,700
2022-08-11T18:45:07.215Z,577
2022-08-11T18:48:09.247Z,473
2022-08-11T18:51:43.426Z,390
2022-08-11T18:54:07.183Z,310
2022-08-11T18:57:07.058Z,237
2022-08-11T19:00:07.171Z,180
2022-08-11T19:03:07.092Z,130
2022-08-11T19:06:46.660Z,90
2022-08-11T19:09:07.142Z,60
2022-08-11T19:12:07.103Z,37
2022-08-11T19:15:07.066Z,23
2022-08-11T19:18:07.319Z,13
2022-08-11T19:21:07.193Z,10
2022-08-11T19:24:07.181Z,7
2022-08-11T19:27:07.164Z,3
2022-08-11T19:30:20.547Z,3
2022-08-11T19:33:07.099Z,3
2022-08-11T19:36:07.138Z,0
2022-08-11T19:39:07.084Z,0
2022-08-11T19:42:07.047Z,0
2022-08-11T19:45:07.151Z,0
2022-08-11T19:48:38.565Z,0
2022-08-11T19:51:07.430Z,0
2022-08-11T19:54:07.048Z,0
2022-08-11T19:57:07.146Z,0
2022-08-11T20:00:07.128Z,0
2022-08-11T20:03:12.957Z,0
2022-08-11T20:06:07.168Z,0
2022-08-11T20:09:07.701Z,0
2022-08-11T20:12:07.085Z,0
2022-08-11T20:15:07.107Z,0
2022-08-11T20:18:07.113Z,0
2022-08-11T20:21:33.699Z,0
2022-08-11T20:24:07.020Z,0
2022-08-11T20:27:07.090Z,0
2022-08-11T20:30:07.201Z,0
2022-08-11T20:33:07.076Z,0
2022-08-11T20:36:07.034Z,0
2022-08-11T20:39:07.053Z,0
2022-08-11T20:42:07.083Z,0
2022-08-11T20:45:07.392Z,0
2022-08-11T20:48:10.165Z,0
2022-08-11T20:51:18.685Z,0
2022-08-11T20:54:15.796Z,0
2022-08-11T20:57:17.378Z,0
2022-08-11T21:00:11.179Z,0
2022-08-11T21:03:07.125Z,0
2022-08-11T21:06:33.391Z,0
2022-08-11T21:09:08.393Z,0
2022-08-11T21:12:08.327Z,0
2022-08-11T21:15:12.418Z,0
2022-08-11T21:18:30.648Z,0
2022-08-11T21:21:19.183Z,0
2022-08-11T21:24:07.100Z,0
2022-08-11T21:27:23.878Z,0
2022-08-11T21:30:07.089Z,0
2022-08-11T21:33:07.048Z,0
2022-08-11T21:36:07.078Z,0
2022-08-11T21:39:08.074Z,0
2022-08-11T21:42:07.163Z,0
2022-08-11T21:45:07.075Z,0
2022-08-11T21:48:08.096Z,0
2022-08-11T21:51:07.210Z,0
2022-08-11T21:54:08.399Z,0
2022-08-11T21:57:07.085Z,0
2022-08-11T22:00:07.938Z,0
2022-08-11T22:03:10.166Z,0
2022-08-11T22:06:07.027Z,0
2022-08-11T22:09:07.148Z,0
2022-08-11T22:12:47.994Z,0
2022-08-11T22:15:07.024Z,0
2022-08-11T22:18:07.074Z,0
2022-08-11T22:21:07.064Z,0
2022-08-11T22:24:12.034Z,0
2022-08-11T22:27:07.637Z,0
2022-08-11T22:30:07.063Z,0
2022-08-11T22:33:07.054Z,0
2022-08-11T22:36:07.612Z,0
2022-08-11T22:39:07.118Z,0
2022-08-11T22:42:07.173Z,0
2022-08-11T22:45:07.103Z,0
2022-08-11T22:48:07.076Z,0
2022-08-11T22:51:07.001Z,0
2022-08-11T22:54:07.048Z,0
2022-08-11T22:57:07.049Z,0
2022-08-11T23:00:07.182Z,0
2022-08-11T23:03:07.019Z,0
2022-08-11T23:06:11.282Z,0
2022-08-11T23:09:07.442Z,0
2022-08-11T23:12:16.652Z,0
2022-08-11T23:15:07.124Z,0
2022-08-11T23:18:08.139Z,0
2022-08-11T23:21:07.844Z,0
2022-08-11T23:24:07.142Z,0
2022-08-11T23:27:07.061Z,0
2022-08-11T23:30:07.058Z,0
2022-08-11T23:33:07.183Z,0
2022-08-11T23:36:47.199Z,0
2022-08-11T23:39:07.070Z,0
2022-08-11T23:42:07.069Z,0
2022-08-11T23:45:11.891Z,0
2022-08-11T23:48:07.101Z,0
2022-08-11T23:51:07.065Z,0
2022-08-11T23:54:14.166Z,0
2022-08-11T23:57:07.030Z,0
